createdAt,value
2019-06-01T00:02:04.077Z,47071.97
2019-06-01T00:07:01.128Z,47103.16
2019-06-01T00:11:57.438Z,47124.29
2019-06-01T00:16:53.363Z,47124.29
2019-06-01T00:21:49.523Z,47081.03
2019-06-01T00:26:45.913Z,47103.16
2019-06-01T00:31:43.045Z,47074.99
2019-06-01T00:36:39.179Z,47089.08
2019-06-01T00:41:35.114Z,47081.03
2019-06-01T00:46:31.136Z,47078.01
2019-06-01T00:51:27.068Z,47089.08
2019-06-01T00:56:23.094Z,47079.02
2019-06-01T01:01:19.017Z,47091.09
2019-06-01T01:06:14.942Z,47081.03
2019-06-01T01:11:11.018Z,47080.02
2019-06-01T01:16:06.941Z,47066.94
2019-06-01T01:21:03.006Z,47066.94
2019-06-01T01:25:58.907Z,47085.05
2019-06-01T01:31:06.555Z,47086.06
2019-06-01T01:35:54.098Z,47051.85
2019-06-01T01:40:50.317Z,47084.05
2019-06-01T01:45:46.440Z,47092.09
2019-06-01T01:50:42.424Z,47091.09
2019-06-01T01:55:38.443Z,47074.99
2019-06-01T02:00:45.848Z,47045.82
2019-06-01T02:05:41.861Z,47072.98
2019-06-01T02:10:37.882Z,47044.81
2019-06-01T02:15:34.997Z,47062.92
2019-06-01T02:20:31.375Z,47050.85
2019-06-01T02:25:27.505Z,47054.87
2019-06-01T02:30:23.643Z,47067.95
2019-06-01T02:35:19.598Z,47047.83
2019-06-01T02:40:15.721Z,47049.84
2019-06-01T02:45:12.350Z,47028.71
2019-06-01T02:50:08.809Z,47054.87
2019-06-01T02:55:07.644Z,47066.94
2019-06-01T03:00:06.697Z,47081.03
2019-06-01T03:05:05.543Z,47092.09
2019-06-01T03:10:03.315Z,47058.89
2019-06-01T03:15:00.587Z,47050.85
2019-06-01T03:19:57.012Z,47014.63
2019-06-01T03:24:54.146Z,47015.64
2019-06-01T03:29:53.990Z,47061.91
2019-06-01T03:34:50.011Z,47022.68
2019-06-01T03:39:47.250Z,47016.64
2019-06-01T03:44:43.175Z,47037.77
2019-06-01T03:49:39.127Z,47045.82
2019-06-01T03:54:35.105Z,47029.72
2019-06-01T03:59:30.998Z,47059.90
2019-06-01T04:04:26.920Z,47056.88
2019-06-01T04:09:23.468Z,47051.85
2019-06-01T04:14:19.435Z,47097.12
2019-06-01T04:19:15.363Z,47056.88
2019-06-01T04:24:12.332Z,47077.00
2019-06-01T04:29:08.504Z,47080.02
2019-06-01T04:34:04.623Z,47089.08
2019-06-01T04:39:09.354Z,47095.11
2019-06-01T04:44:06.457Z,47130.32
2019-06-01T04:49:02.559Z,47119.26
2019-06-01T04:53:58.538Z,47161.52
2019-06-01T04:58:54.462Z,47188.68
2019-06-01T05:03:50.399Z,47228.92
2019-06-01T05:08:49.326Z,47176.61
2019-06-01T05:13:45.366Z,47176.61
2019-06-01T05:18:41.279Z,47217.86
2019-06-01T05:23:37.268Z,47327.52
2019-06-01T05:28:33.194Z,47351.67
2019-06-01T05:33:36.960Z,47354.69
2019-06-01T05:38:28.390Z,47390.91
2019-06-01T05:43:24.323Z,47407.01
2019-06-01T05:48:25.038Z,47463.35
2019-06-01T05:53:19.896Z,47485.49
2019-06-01T05:58:17.275Z,47563.97
2019-06-01T06:03:16.209Z,47555.92
2019-06-01T06:08:12.734Z,47572.02
2019-06-01T06:13:09.022Z,47583.09
2019-06-01T06:18:05.049Z,47615.29
2019-06-01T06:23:00.983Z,47671.63
2019-06-01T06:27:56.911Z,47694.78
2019-06-01T06:32:52.840Z,47686.73
2019-06-01T06:37:48.771Z,47637.42
2019-06-01T06:42:44.703Z,47716.91
2019-06-01T06:47:40.634Z,47724.96
2019-06-01T06:52:36.601Z,47714.90
2019-06-01T06:57:32.532Z,47813.51
2019-06-01T07:02:28.462Z,47797.41
2019-06-01T07:07:24.403Z,47771.25
2019-06-01T07:12:21.224Z,47694.78
2019-06-01T07:17:17.279Z,47678.68
2019-06-01T07:22:16.762Z,47800.43
2019-06-01T07:27:11.670Z,47814.52
2019-06-01T07:32:08.543Z,47893.01
2019-06-01T07:37:07.232Z,47896.03
2019-06-01T07:42:03.522Z,47816.53
2019-06-01T07:46:59.552Z,47829.61
2019-06-01T07:51:57.059Z,47819.55
2019-06-01T07:56:53.938Z,47816.53
2019-06-01T08:01:50.769Z,47846.72
2019-06-01T08:06:48.605Z,47907.10
2019-06-01T08:11:44.616Z,48010.75
2019-06-01T08:16:40.550Z,48112.38
2019-06-01T08:21:36.484Z,47935.27
2019-06-01T08:26:32.747Z,47929.23
2019-06-01T08:31:28.961Z,47964.45
2019-06-01T08:36:25.274Z,48013.76
2019-06-01T08:41:21.305Z,48102.32
2019-06-01T08:46:17.235Z,48026.84
2019-06-01T08:51:13.188Z,48019.80
2019-06-01T08:56:09.123Z,47971.50
2019-06-01T09:01:05.052Z,48044.96
2019-06-01T09:06:00.989Z,48088.23
2019-06-01T09:10:56.927Z,48012.76
2019-06-01T09:15:52.861Z,48123.45
2019-06-01T09:20:48.893Z,48240.19
2019-06-01T09:25:44.825Z,48100.30
2019-06-01T09:30:40.776Z,48036.91
2019-06-01T09:35:52.678Z,48066.09
2019-06-01T09:40:35.193Z,48130.50
2019-06-01T09:45:34.577Z,48114.39
2019-06-01T09:50:31.303Z,48250.25
2019-06-01T09:55:27.532Z,48218.05
2019-06-01T10:00:25.055Z,48066.09
2019-06-01T10:05:20.982Z,48004.71
2019-06-01T10:10:17.007Z,48252.27
2019-06-01T10:15:13.038Z,48419.32
2019-06-01T10:20:09.665Z,48328.75
2019-06-01T10:25:06.397Z,48318.68
2019-06-01T10:30:05.433Z,48222.07
2019-06-01T10:35:01.764Z,48211.00
2019-06-01T10:39:57.690Z,48359.95
2019-06-01T10:44:53.619Z,48314.66
2019-06-01T10:49:49.566Z,48447.50
2019-06-01T10:54:45.496Z,48391.14
2019-06-01T10:59:42.531Z,48605.52
2019-06-01T11:04:38.980Z,48303.59
2019-06-01T11:09:36.889Z,48237.17
2019-06-01T11:14:32.985Z,48443.48
2019-06-01T11:19:28.933Z,48534.06
2019-06-01T11:24:24.859Z,48258.30
2019-06-01T11:29:20.785Z,48358.94
2019-06-01T11:34:16.711Z,48427.37
2019-06-01T11:39:13.325Z,48636.71
2019-06-01T11:44:09.275Z,48435.43
2019-06-01T11:49:05.321Z,48417.31
2019-06-01T11:54:01.347Z,48511.92
2019-06-01T11:58:57.378Z,48705.16
2019-06-01T12:03:53.305Z,48444.48
2019-06-01T12:08:56.117Z,48497.82
2019-06-01T12:13:52.142Z,48618.60
2019-06-01T12:18:48.186Z,48464.61
2019-06-01T12:23:45.513Z,48721.26
2019-06-01T12:28:41.755Z,48662.88
2019-06-01T12:33:37.966Z,48655.84
2019-06-01T12:38:58.175Z,48552.17
2019-06-01T12:44:01.888Z,48603.50
2019-06-01T12:48:57.810Z,48675.97
2019-06-01T12:53:53.739Z,48645.77
2019-06-01T12:58:49.674Z,48723.27
2019-06-01T13:03:45.595Z,48699.12
2019-06-01T13:08:47.288Z,48983.96
2019-06-01T13:13:43.328Z,48777.62
2019-06-01T13:18:39.274Z,48735.35
2019-06-01T13:23:35.204Z,48532.05
2019-06-01T13:28:37.982Z,48928.60
2019-06-01T13:33:28.974Z,48833.99
2019-06-01T13:38:26.447Z,49184.27
2019-06-01T13:43:22.480Z,48725.29
2019-06-01T13:48:18.406Z,48848.08
2019-06-01T13:53:14.369Z,48791.71
2019-06-01T13:58:10.297Z,48660.87
2019-06-01T14:03:06.322Z,48876.26
2019-06-01T14:08:02.349Z,48923.57
2019-06-01T14:12:58.268Z,48696.10
2019-06-01T14:17:54.576Z,48750.45
2019-06-01T14:22:51.905Z,49038.32
2019-06-01T14:27:48.282Z,48946.72
2019-06-01T14:32:44.204Z,49037.31
2019-06-01T14:37:41.247Z,48960.81
2019-06-01T14:42:37.954Z,49245.67
2019-06-01T14:47:34.518Z,49165.14
2019-06-01T14:52:34.565Z,49245.67
2019-06-01T14:57:29.818Z,49055.43
2019-06-01T15:02:25.822Z,49072.54
2019-06-01T15:07:21.997Z,49488.28
2019-06-01T15:12:18.317Z,48856.13
2019-06-01T15:17:14.464Z,48715.22
2019-06-01T15:22:10.708Z,48818.89
2019-06-01T15:27:06.841Z,48810.84
2019-06-01T15:32:04.327Z,49017.18
2019-06-01T15:37:01.910Z,49057.44
2019-06-01T15:41:59.130Z,48803.79
2019-06-01T15:46:55.991Z,48744.41
2019-06-01T15:51:52.052Z,48901.43
2019-06-01T15:56:48.815Z,49117.84
2019-06-01T16:01:45.618Z,49232.59
2019-06-01T16:06:42.605Z,48896.39
2019-06-01T16:11:39.167Z,49037.31
2019-06-01T16:16:35.213Z,48976.91
2019-06-01T16:21:31.243Z,49127.90
2019-06-01T16:26:28.118Z,49232.59
2019-06-01T16:31:24.163Z,49080.59
2019-06-01T16:36:21.082Z,48902.43
2019-06-01T16:41:17.141Z,48865.19
2019-06-01T16:46:13.115Z,49201.38
2019-06-01T16:51:09.188Z,49328.22
2019-06-01T16:56:06.368Z,49349.36
2019-06-01T17:01:02.750Z,49481.23
2019-06-01T17:05:58.689Z,49352.38
2019-06-01T17:10:54.616Z,49281.91
2019-06-01T17:15:50.572Z,49874.86
2019-06-01T17:20:52.173Z,49469.15
2019-06-01T17:25:48.105Z,49023.21
2019-06-01T17:30:44.241Z,49224.54
2019-06-01T17:35:40.171Z,49371.50
2019-06-01T17:40:39.673Z,49365.46
2019-06-01T17:45:34.562Z,49508.41
2019-06-01T17:50:30.610Z,49381.57
2019-06-01T17:55:34.707Z,49440.96
2019-06-01T18:00:30.738Z,49147.03
2019-06-01T18:05:26.765Z,49106.76
2019-06-01T18:10:23.191Z,48997.05
2019-06-01T18:15:19.419Z,49032.28
2019-06-01T18:20:15.440Z,49400.70
2019-06-01T18:25:17.207Z,49532.57
2019-06-01T18:30:13.537Z,49388.62
2019-06-01T18:35:09.567Z,49339.29
2019-06-01T18:40:07.760Z,49201.38
2019-06-01T18:45:05.772Z,49113.81
2019-06-01T18:50:05.863Z,48976.91
2019-06-01T18:55:02.440Z,48746.42
2019-06-01T18:59:58.376Z,48537.08
2019-06-01T19:04:54.304Z,48342.84
2019-06-01T19:09:50.245Z,48153.64
2019-06-01T19:14:46.178Z,48109.36
2019-06-01T19:19:42.115Z,48004.71
2019-06-01T19:24:38.039Z,47982.57
2019-06-01T19:29:33.965Z,47894.02
2019-06-01T19:34:29.895Z,47882.95
2019-06-01T19:39:26.890Z,47803.45
2019-06-01T19:44:22.782Z,47792.38
2019-06-01T19:49:19.066Z,47745.09
2019-06-01T19:54:15.135Z,47688.74
2019-06-01T19:59:11.811Z,47672.64
2019-06-01T20:04:07.797Z,47671.63
2019-06-01T20:09:07.645Z,47607.24
2019-06-01T20:14:03.738Z,47581.07
2019-06-01T20:18:59.647Z,47551.89
2019-06-01T20:23:55.581Z,47541.84
2019-06-01T20:28:51.563Z,47520.70
2019-06-01T20:33:47.487Z,47527.75
2019-06-01T20:38:44.511Z,47493.54
2019-06-01T20:43:40.625Z,47472.41
2019-06-01T20:48:36.549Z,47481.46
2019-06-01T20:53:32.507Z,47459.33
2019-06-01T20:58:28.570Z,47424.11
2019-06-01T21:03:24.604Z,47439.21
2019-06-01T21:08:22.540Z,47402.98
2019-06-01T21:13:18.616Z,47422.10
2019-06-01T21:18:14.547Z,47409.02
2019-06-01T21:23:10.483Z,47377.83
2019-06-01T21:28:06.413Z,47356.70
2019-06-01T21:33:02.450Z,47370.79
2019-06-01T21:37:58.384Z,47315.45
2019-06-01T21:43:06.854Z,47354.69
2019-06-01T21:47:52.350Z,47322.49
2019-06-01T21:52:48.325Z,47339.60
2019-06-01T21:57:44.438Z,47346.64
2019-06-01T22:02:40.471Z,47321.49
2019-06-01T22:07:36.601Z,47371.79
2019-06-01T22:12:32.578Z,47348.65
2019-06-01T22:17:28.485Z,47344.62
2019-06-01T22:22:24.445Z,47301.36
2019-06-01T22:27:20.493Z,47259.11
2019-06-01T22:32:16.411Z,47270.17
2019-06-01T22:37:12.344Z,47296.33
2019-06-01T22:42:08.272Z,47337.58
2019-06-01T22:47:04.234Z,47295.33
2019-06-01T22:52:00.204Z,47298.34
2019-06-01T22:56:56.135Z,47270.17
2019-06-01T23:01:52.068Z,47279.23
2019-06-01T23:06:48.202Z,47378.84
2019-06-01T23:11:44.329Z,47345.63
2019-06-01T23:16:40.255Z,47337.58
2019-06-01T23:21:36.190Z,47320.48
2019-06-01T23:26:32.521Z,47322.49
2019-06-01T23:31:28.549Z,47302.37
2019-06-01T23:36:24.587Z,47306.39
2019-06-01T23:41:20.585Z,47360.73
2019-06-01T23:46:16.503Z,47336.58
2019-06-01T23:51:12.492Z,47270.17
2019-06-01T23:56:08.490Z,47286.27
